createdAt,value
2022-09-24T00:01:32.828Z,15.81
2022-09-24T00:04:02.407Z,15.85
2022-09-24T00:06:31.545Z,15.87
2022-09-24T00:08:59.224Z,15.85
2022-09-24T00:11:28.643Z,15.83
2022-09-24T00:13:57.581Z,15.84
2022-09-24T00:16:30.765Z,15.82
2022-09-24T00:18:59.726Z,15.79
2022-09-24T00:21:29.356Z,15.73
2022-09-24T00:23:58.522Z,15.76
2022-09-24T00:26:43.943Z,15.75
2022-09-24T00:29:12.990Z,15.75
2022-09-24T00:31:42.055Z,15.78
2022-09-24T00:34:10.402Z,15.78
2022-09-24T00:36:38.250Z,15.78
2022-09-24T00:39:06.545Z,15.78
2022-09-24T00:41:39.490Z,15.79
2022-09-24T00:44:44.717Z,15.78
2022-09-24T00:47:15.686Z,15.75
2022-09-24T00:49:43.758Z,15.75
2022-09-24T00:52:11.475Z,15.77
2022-09-24T00:54:39.551Z,15.76
2022-09-24T00:57:07.721Z,15.76
2022-09-24T00:59:36.110Z,15.75
2022-09-24T01:02:05.256Z,15.76
2022-09-24T01:04:34.409Z,15.74
2022-09-24T01:07:02.385Z,15.76
2022-09-24T01:09:30.075Z,15.74
2022-09-24T01:12:03.649Z,15.74
2022-09-24T01:14:51.553Z,15.74
2022-09-24T01:17:25.186Z,15.72
2022-09-24T01:20:37.980Z,15.70
2022-09-24T01:23:43.820Z,15.67
2022-09-24T01:26:26.236Z,15.64
2022-09-24T01:29:06.139Z,15.68
2022-09-24T01:31:41.618Z,15.68
2022-09-24T01:34:10.650Z,15.67
2022-09-24T01:36:40.198Z,15.68
2022-09-24T01:39:08.864Z,15.63
2022-09-24T01:41:38.516Z,15.64
2022-09-24T01:44:07.781Z,15.69
2022-09-24T01:46:39.058Z,15.69
2022-09-24T01:49:07.256Z,15.67
2022-09-24T01:51:39.518Z,15.66
2022-09-24T01:54:11.852Z,15.67
2022-09-24T01:56:41.086Z,15.68
2022-09-24T01:59:12.441Z,15.62
2022-09-24T02:01:43.793Z,15.57
2022-09-24T02:04:15.588Z,15.65
2022-09-24T02:06:47.534Z,15.67
2022-09-24T02:09:32.380Z,15.67
2022-09-24T02:12:04.149Z,15.67
2022-09-24T02:14:33.758Z,15.64
2022-09-24T02:17:03.723Z,15.62
2022-09-24T02:19:32.051Z,15.61
2022-09-24T02:22:00.134Z,15.57
2022-09-24T02:24:31.706Z,15.57
2022-09-24T02:27:00.036Z,15.58
2022-09-24T02:29:27.793Z,15.58
2022-09-24T02:31:57.284Z,15.58
2022-09-24T02:34:28.003Z,15.57
2022-09-24T02:36:57.665Z,15.55
2022-09-24T02:39:25.368Z,15.56
2022-09-24T02:41:53.771Z,15.57
2022-09-24T02:44:22.338Z,15.55
2022-09-24T02:46:50.810Z,15.56
2022-09-24T02:49:18.984Z,15.57
2022-09-24T02:51:48.146Z,15.61
2022-09-24T02:54:15.735Z,15.62
2022-09-24T02:56:43.425Z,15.61
2022-09-24T02:59:12.205Z,15.59
2022-09-24T03:01:40.041Z,15.61
2022-09-24T03:04:08.062Z,15.61
2022-09-24T03:06:36.758Z,15.56
2022-09-24T03:09:06.472Z,15.55
2022-09-24T03:11:35.555Z,15.55
2022-09-24T03:14:03.280Z,15.55
2022-09-24T03:16:30.995Z,15.52
2022-09-24T03:18:58.670Z,15.52
2022-09-24T03:21:26.398Z,15.53
2022-09-24T03:23:54.033Z,15.51
2022-09-24T03:26:23.088Z,15.48
2022-09-24T03:28:51.044Z,15.46
2022-09-24T03:31:17.775Z,15.42
2022-09-24T03:33:47.253Z,15.43
2022-09-24T03:36:16.674Z,15.41
2022-09-24T03:38:46.245Z,15.44
2022-09-24T03:41:14.647Z,15.45
2022-09-24T03:43:44.129Z,15.44
2022-09-24T03:46:12.713Z,15.44
2022-09-24T03:48:41.554Z,15.42
2022-09-24T03:51:11.461Z,15.45
2022-09-24T03:53:39.594Z,15.44
2022-09-24T03:56:08.183Z,15.44
2022-09-24T03:58:38.750Z,15.45
2022-09-24T04:01:08.138Z,15.44
2022-09-24T04:03:36.165Z,15.44
2022-09-24T04:06:03.938Z,15.44
2022-09-24T04:08:32.204Z,15.42
2022-09-24T04:10:59.900Z,15.41
2022-09-24T04:13:27.550Z,15.41
2022-09-24T04:15:55.574Z,15.41
2022-09-24T04:18:24.717Z,15.39
2022-09-24T04:20:52.394Z,15.39
2022-09-24T04:23:20.075Z,15.41
2022-09-24T04:25:48.035Z,15.41
2022-09-24T04:28:15.708Z,15.41
2022-09-24T04:30:43.350Z,15.41
2022-09-24T04:33:11.053Z,15.40
2022-09-24T04:35:40.480Z,15.41
2022-09-24T04:38:08.157Z,15.43
2022-09-24T04:40:35.873Z,15.41
2022-09-24T04:43:06.008Z,15.41
2022-09-24T04:45:33.979Z,15.44
2022-09-24T04:48:01.971Z,15.45
2022-09-24T04:50:33.141Z,15.45
2022-09-24T04:53:03.033Z,15.44
2022-09-24T04:55:32.143Z,15.45
2022-09-24T04:58:00.174Z,15.44
2022-09-24T05:00:27.818Z,15.40
2022-09-24T05:02:59.402Z,15.39
2022-09-24T05:05:28.039Z,15.42
2022-09-24T05:07:56.735Z,15.43
2022-09-24T05:10:26.092Z,15.44
2022-09-24T05:12:53.951Z,15.43
2022-09-24T05:15:21.841Z,15.44
2022-09-24T05:17:49.508Z,15.42
2022-09-24T05:20:17.989Z,15.44
2022-09-24T05:22:47.242Z,15.44
2022-09-24T05:25:15.966Z,15.47
2022-09-24T05:27:47.649Z,15.47
2022-09-24T05:30:16.104Z,15.48
2022-09-24T05:32:43.795Z,15.45
2022-09-24T05:35:13.667Z,15.45
2022-09-24T05:37:41.608Z,15.45
2022-09-24T05:40:27.732Z,15.45
2022-09-24T05:43:02.531Z,15.47
2022-09-24T05:45:30.556Z,15.47
2022-09-24T05:47:59.933Z,15.47
2022-09-24T05:50:27.787Z,15.48
2022-09-24T05:52:55.493Z,15.47
2022-09-24T05:55:23.158Z,15.48
2022-09-24T05:57:50.943Z,15.50
2022-09-24T06:00:20.112Z,15.50
2022-09-24T06:02:47.894Z,15.50
2022-09-24T06:05:15.641Z,15.51
2022-09-24T06:07:43.354Z,15.51
2022-09-24T06:10:11.105Z,15.49
2022-09-24T06:12:38.789Z,15.48
2022-09-24T06:15:07.156Z,15.50
2022-09-24T06:17:36.209Z,15.51
2022-09-24T06:20:03.987Z,15.52
2022-09-24T06:22:31.725Z,15.53
2022-09-24T06:24:59.487Z,15.54
2022-09-24T06:27:27.227Z,15.55
2022-09-24T06:29:55.043Z,15.57
2022-09-24T06:32:24.712Z,15.56
2022-09-24T06:34:58.871Z,15.55
2022-09-24T06:37:27.085Z,15.46
2022-09-24T06:39:55.316Z,15.55
2022-09-24T06:42:23.226Z,15.52
2022-09-24T06:44:51.719Z,15.53
2022-09-24T06:47:19.600Z,15.50
2022-09-24T06:49:50.255Z,15.52
2022-09-24T06:52:20.602Z,15.53
2022-09-24T06:54:48.439Z,15.52
2022-09-24T06:57:16.321Z,15.51
2022-09-24T06:59:44.203Z,15.51
2022-09-24T07:02:12.095Z,15.51
2022-09-24T07:04:40.044Z,15.53
2022-09-24T07:07:25.422Z,15.53
2022-09-24T07:09:54.654Z,15.56
2022-09-24T07:12:22.523Z,15.56
2022-09-24T07:14:51.029Z,15.55
2022-09-24T07:17:18.873Z,15.56
2022-09-24T07:19:46.675Z,15.54
2022-09-24T07:22:14.896Z,15.54
2022-09-24T07:24:42.678Z,15.55
2022-09-24T07:27:12.007Z,15.56
2022-09-24T07:29:40.055Z,15.55
2022-09-24T07:32:07.850Z,15.54
2022-09-24T07:34:35.679Z,15.55
2022-09-24T07:37:03.549Z,15.54
2022-09-24T07:39:31.391Z,15.56
2022-09-24T07:41:59.523Z,15.57
2022-09-24T07:44:29.026Z,15.60
2022-09-24T07:46:57.086Z,15.63
2022-09-24T07:49:24.990Z,15.62
2022-09-24T07:51:54.401Z,15.62
2022-09-24T07:54:22.222Z,15.64
2022-09-24T07:56:50.041Z,15.63
2022-09-24T07:59:19.859Z,15.62
2022-09-24T08:01:49.105Z,15.64
2022-09-24T08:04:18.326Z,15.63
2022-09-24T08:06:47.698Z,15.63
2022-09-24T08:09:16.647Z,15.63
2022-09-24T08:11:44.793Z,15.63
2022-09-24T08:14:12.654Z,15.61
2022-09-24T08:16:41.232Z,15.61
2022-09-24T08:19:14.312Z,15.62
2022-09-24T08:21:42.140Z,15.62
2022-09-24T08:24:10.074Z,15.65
2022-09-24T08:26:37.979Z,15.62
2022-09-24T08:29:05.795Z,15.63
2022-09-24T08:31:34.935Z,15.62
2022-09-24T08:34:02.886Z,15.62
2022-09-24T08:36:32.177Z,15.61
2022-09-24T08:38:59.994Z,15.59
2022-09-24T08:41:53.760Z,15.60
2022-09-24T08:44:40.375Z,15.62
2022-09-24T08:47:24.765Z,15.63
2022-09-24T08:50:02.043Z,15.65
2022-09-24T08:52:47.818Z,15.66
2022-09-24T08:55:21.677Z,15.65
2022-09-24T08:57:57.103Z,15.67
2022-09-24T09:00:24.914Z,15.67
2022-09-24T09:02:58.476Z,15.69
2022-09-24T09:05:48.591Z,15.73
2022-09-24T09:08:54.600Z,15.72
2022-09-24T09:11:18.038Z,15.76
2022-09-24T09:13:49.851Z,15.78
2022-09-24T09:16:26.559Z,15.79
2022-09-24T09:18:57.349Z,15.79
2022-09-24T09:21:30.023Z,15.78
2022-09-24T09:24:00.832Z,15.81
2022-09-24T09:26:28.637Z,15.87
2022-09-24T09:29:00.327Z,15.85
2022-09-24T09:31:36.727Z,15.86
2022-09-24T09:34:22.281Z,15.83
2022-09-24T09:37:00.179Z,15.80
2022-09-24T09:39:37.740Z,15.86
2022-09-24T09:42:14.572Z,15.82
2022-09-24T09:44:43.650Z,15.84
2022-09-24T09:47:20.458Z,15.82
2022-09-24T09:49:50.364Z,15.78
2022-09-24T09:52:21.784Z,15.70
2022-09-24T09:54:51.062Z,15.74
2022-09-24T09:57:21.127Z,15.66
2022-09-24T09:59:50.248Z,15.70
2022-09-24T10:02:24.478Z,15.69
2022-09-24T10:04:55.157Z,15.67
2022-09-24T10:07:23.694Z,15.69
2022-09-24T10:10:03.330Z,15.70
2022-09-24T10:12:31.479Z,15.73
2022-09-24T10:15:01.845Z,15.77
2022-09-24T10:17:32.957Z,15.76
2022-09-24T10:20:02.605Z,15.77
2022-09-24T10:22:31.232Z,15.76
2022-09-24T10:25:01.775Z,15.76
2022-09-24T10:27:33.120Z,15.75
2022-09-24T10:30:20.013Z,15.75
2022-09-24T10:32:48.976Z,15.71
2022-09-24T10:35:27.022Z,15.76
2022-09-24T10:37:56.074Z,15.77
2022-09-24T10:40:28.564Z,15.84
2022-09-24T10:42:58.080Z,15.87
2022-09-24T10:45:33.352Z,15.86
2022-09-24T10:48:08.811Z,15.87
2022-09-24T10:50:40.366Z,15.91
2022-09-24T10:53:09.952Z,15.90
2022-09-24T10:55:46.163Z,15.93
2022-09-24T10:58:27.635Z,15.91
2022-09-24T11:01:03.624Z,15.97
2022-09-24T11:03:43.522Z,15.97
2022-09-24T11:06:18.871Z,15.98
2022-09-24T11:08:59.480Z,16.00
2022-09-24T11:11:40.214Z,15.97
2022-09-24T11:14:21.732Z,15.97
2022-09-24T11:17:11.804Z,15.97
2022-09-24T11:19:52.030Z,15.98
2022-09-24T11:22:24.826Z,15.97
2022-09-24T11:25:14.919Z,15.98
2022-09-24T11:27:53.175Z,15.95
2022-09-24T11:30:22.408Z,15.96
2022-09-24T11:33:09.055Z,15.96
2022-09-24T11:35:53.150Z,15.96
2022-09-24T11:38:29.186Z,15.95
2022-09-24T11:41:10.394Z,15.97
2022-09-24T11:44:00.945Z,15.96
2022-09-24T11:46:40.520Z,15.92
2022-09-24T11:49:31.272Z,15.91
2022-09-24T11:52:02.617Z,15.91
2022-09-24T11:54:32.666Z,15.89
2022-09-24T11:57:07.717Z,15.91
2022-09-24T11:59:42.408Z,15.89
2022-09-24T12:02:19.313Z,15.84
2022-09-24T12:04:54.006Z,15.90
2022-09-24T12:07:25.633Z,15.90
2022-09-24T12:09:57.509Z,15.91
2022-09-24T12:12:28.437Z,15.90
2022-09-24T12:15:02.830Z,15.89
2022-09-24T12:17:36.444Z,15.91
2022-09-24T12:20:07.976Z,15.85
2022-09-24T12:22:37.106Z,15.88
2022-09-24T12:25:07.457Z,15.85
2022-09-24T12:27:37.085Z,15.84
2022-09-24T12:30:33.464Z,15.78
2022-09-24T12:33:08.680Z,15.83
2022-09-24T12:35:47.349Z,15.83
2022-09-24T12:38:18.236Z,15.87
2022-09-24T12:41:19.599Z,15.87
2022-09-24T12:43:50.884Z,15.86
2022-09-24T12:46:22.145Z,15.86
2022-09-24T12:48:50.939Z,15.82
2022-09-24T12:51:22.350Z,15.82
2022-09-24T12:53:58.779Z,15.81
2022-09-24T12:56:29.727Z,15.77
2022-09-24T12:58:58.082Z,15.79
2022-09-24T13:01:32.456Z,15.79
2022-09-24T13:04:25.928Z,15.83
2022-09-24T13:06:54.277Z,15.83
2022-09-24T13:09:32.669Z,15.83
2022-09-24T13:12:05.579Z,15.83
2022-09-24T13:14:34.927Z,15.81
2022-09-24T13:17:07.952Z,15.82
2022-09-24T13:19:39.032Z,15.79
2022-09-24T13:22:07.958Z,15.79
2022-09-24T13:24:47.745Z,15.75
2022-09-24T13:27:24.925Z,15.78
2022-09-24T13:30:05.239Z,15.77
2022-09-24T13:32:38.636Z,15.74
2022-09-24T13:35:11.071Z,15.72
2022-09-24T13:37:42.574Z,15.74
2022-09-24T13:40:18.209Z,15.77
2022-09-24T13:42:49.473Z,15.74
2022-09-24T13:45:21.724Z,15.65
2022-09-24T13:47:53.055Z,15.57
2022-09-24T13:50:26.488Z,15.51
2022-09-24T13:52:56.266Z,15.56
2022-09-24T13:55:27.095Z,15.48
2022-09-24T13:57:56.148Z,15.57
2022-09-24T14:00:26.385Z,15.54
2022-09-24T14:03:02.226Z,15.52
2022-09-24T14:05:31.914Z,15.51
2022-09-24T14:08:03.421Z,15.50
2022-09-24T14:10:31.742Z,15.47
2022-09-24T14:13:21.568Z,15.47
2022-09-24T14:15:57.601Z,15.47
2022-09-24T14:18:28.044Z,15.46
2022-09-24T14:20:58.794Z,15.40
2022-09-24T14:23:31.195Z,15.41
2022-09-24T14:25:59.864Z,15.35
2022-09-24T14:28:29.881Z,15.40
2022-09-24T14:30:57.690Z,15.40
2022-09-24T14:33:29.708Z,15.44
2022-09-24T14:35:58.410Z,15.45
2022-09-24T14:38:29.380Z,15.47
2022-09-24T14:41:00.937Z,15.46
2022-09-24T14:43:31.635Z,15.40
2022-09-24T14:46:04.506Z,15.41
2022-09-24T14:48:35.464Z,15.42
2022-09-24T14:51:03.577Z,15.44
2022-09-24T14:53:34.245Z,15.44
2022-09-24T14:56:07.977Z,15.46
2022-09-24T14:58:37.459Z,15.51
2022-09-24T15:01:08.166Z,15.50
2022-09-24T15:03:40.975Z,15.51
2022-09-24T15:06:19.900Z,15.45
2022-09-24T15:08:58.584Z,15.53
2022-09-24T15:11:28.827Z,15.58
2022-09-24T15:14:01.001Z,15.60
2022-09-24T15:16:33.893Z,15.62
2022-09-24T15:19:19.803Z,15.63
2022-09-24T15:21:48.985Z,15.65
2022-09-24T15:24:17.237Z,15.66
2022-09-24T15:26:47.100Z,15.70
2022-09-24T15:29:23.961Z,15.71
2022-09-24T15:31:51.820Z,15.72
2022-09-24T15:34:21.391Z,15.73
2022-09-24T15:36:49.540Z,15.76
2022-09-24T15:39:18.262Z,15.77
2022-09-24T15:41:46.160Z,15.79
2022-09-24T15:44:18.616Z,15.79
2022-09-24T15:46:48.114Z,15.79
2022-09-24T15:49:16.386Z,15.78
2022-09-24T15:51:45.619Z,15.80
2022-09-24T15:54:13.500Z,15.82
2022-09-24T15:56:44.335Z,15.82
2022-09-24T15:59:14.823Z,15.80
2022-09-24T16:01:43.124Z,15.77
2022-09-24T16:04:11.327Z,15.80
2022-09-24T16:06:39.624Z,15.78
2022-09-24T16:09:08.883Z,15.76
2022-09-24T16:11:36.718Z,15.72
2022-09-24T16:14:07.180Z,15.69
2022-09-24T16:16:35.142Z,15.66
2022-09-24T16:19:03.967Z,15.63
2022-09-24T16:21:32.010Z,15.61
2022-09-24T16:24:00.572Z,15.58
2022-09-24T16:26:29.777Z,15.55
2022-09-24T16:28:57.609Z,15.56
2022-09-24T16:31:25.475Z,15.50
2022-09-24T16:33:54.151Z,15.55
2022-09-24T16:36:23.884Z,15.50
2022-09-24T16:38:52.054Z,15.46
2022-09-24T16:41:19.844Z,15.48
2022-09-24T16:43:49.095Z,15.46
2022-09-24T16:46:20.718Z,15.49
2022-09-24T16:48:50.227Z,15.50
2022-09-24T16:51:18.411Z,15.49
2022-09-24T16:53:48.879Z,15.50
2022-09-24T16:56:18.389Z,15.50
2022-09-24T16:58:48.431Z,15.43
2022-09-24T17:01:17.856Z,15.44
2022-09-24T17:03:46.671Z,15.40
2022-09-24T17:06:18.713Z,15.40
2022-09-24T17:09:03.890Z,15.38
2022-09-24T17:11:31.775Z,15.36
2022-09-24T17:14:01.221Z,15.36
2022-09-24T17:16:29.697Z,15.36
2022-09-24T17:18:57.582Z,15.37
2022-09-24T17:21:25.668Z,15.39
2022-09-24T17:23:53.598Z,15.37
2022-09-24T17:26:22.700Z,15.37
2022-09-24T17:28:54.046Z,15.36
2022-09-24T17:31:25.038Z,15.32
2022-09-24T17:33:57.122Z,15.30
2022-09-24T17:36:25.835Z,15.26
2022-09-24T17:38:53.877Z,15.24
2022-09-24T17:41:22.041Z,15.24
2022-09-24T17:43:50.442Z,15.24
2022-09-24T17:46:21.652Z,15.22
2022-09-24T17:48:52.933Z,15.19
2022-09-24T17:51:22.700Z,15.16
2022-09-24T17:53:51.676Z,15.16
2022-09-24T17:56:19.606Z,15.14
2022-09-24T17:58:48.021Z,15.13
2022-09-24T18:01:17.853Z,15.12
2022-09-24T18:03:46.141Z,15.09
2022-09-24T18:06:15.922Z,15.10
2022-09-24T18:08:45.378Z,15.11
2022-09-24T18:11:15.751Z,15.10
2022-09-24T18:13:43.546Z,15.11
2022-09-24T18:16:13.324Z,15.06
2022-09-24T18:18:42.090Z,15.12
2022-09-24T18:21:11.490Z,15.12
2022-09-24T18:23:41.247Z,15.11
2022-09-24T18:26:11.898Z,15.09
2022-09-24T18:28:41.521Z,15.10
2022-09-24T18:31:10.932Z,15.08
2022-09-24T18:33:41.612Z,15.09
2022-09-24T18:36:11.121Z,15.03
2022-09-24T18:38:40.189Z,15.09
2022-09-24T18:41:09.532Z,15.08
2022-09-24T18:43:37.460Z,15.09
2022-09-24T18:46:05.725Z,15.09
2022-09-24T18:48:33.877Z,15.08
2022-09-24T18:51:01.536Z,15.06
2022-09-24T18:53:31.341Z,15.06
2022-09-24T18:56:04.931Z,15.06
2022-09-24T18:58:32.663Z,15.06
2022-09-24T19:01:00.484Z,15.04
2022-09-24T19:03:29.443Z,15.04
2022-09-24T19:06:01.665Z,14.99
2022-09-24T19:08:31.713Z,14.98
2022-09-24T19:11:04.716Z,14.98
2022-09-24T19:13:32.653Z,14.97
2022-09-24T19:16:04.560Z,14.98
2022-09-24T19:18:32.403Z,14.98
2022-09-24T19:21:00.794Z,14.99
2022-09-24T19:23:28.483Z,15.00
2022-09-24T19:26:01.709Z,14.99
2022-09-24T19:28:30.834Z,14.99
2022-09-24T19:30:58.616Z,15.01
2022-09-24T19:33:26.441Z,15.01
2022-09-24T19:35:55.613Z,15.01
2022-09-24T19:38:25.544Z,15.00
2022-09-24T19:40:58.313Z,14.97
2022-09-24T19:43:26.176Z,14.97
2022-09-24T19:46:00.030Z,14.97
2022-09-24T19:48:28.259Z,14.97
2022-09-24T19:50:56.318Z,14.91
2022-09-24T19:53:23.904Z,14.95
2022-09-24T19:55:51.543Z,14.95
2022-09-24T19:58:19.266Z,14.96
2022-09-24T20:00:46.965Z,14.97
2022-09-24T20:03:17.072Z,14.96
2022-09-24T20:05:44.931Z,14.96
2022-09-24T20:08:14.534Z,14.94
2022-09-24T20:10:42.389Z,14.96
2022-09-24T20:13:10.684Z,14.94
2022-09-24T20:15:39.381Z,14.94
2022-09-24T20:18:07.583Z,14.94
2022-09-24T20:20:36.647Z,14.93
2022-09-24T20:23:04.347Z,14.91
2022-09-24T20:25:49.430Z,14.90
2022-09-24T20:28:17.388Z,14.89
2022-09-24T20:30:45.110Z,14.86
2022-09-24T20:33:13.125Z,14.82
2022-09-24T20:35:42.527Z,14.83
2022-09-24T20:38:10.521Z,14.81
2022-09-24T20:40:40.952Z,14.68
2022-09-24T20:43:09.282Z,14.76
2022-09-24T20:45:41.202Z,14.75
2022-09-24T20:48:09.043Z,14.73
2022-09-24T20:50:36.759Z,14.70
2022-09-24T20:53:05.813Z,14.68
2022-09-24T20:55:33.619Z,14.68
2022-09-24T20:58:01.409Z,14.65
2022-09-24T21:00:35.179Z,14.64
2022-09-24T21:03:15.447Z,14.62
2022-09-24T21:05:52.049Z,14.60
2022-09-24T21:08:21.088Z,14.58
2022-09-24T21:10:48.757Z,14.56
2022-09-24T21:13:16.535Z,14.56
2022-09-24T21:15:44.426Z,14.54
2022-09-24T21:18:22.754Z,14.54
2022-09-24T21:20:51.275Z,14.56
2022-09-24T21:23:19.134Z,14.53
2022-09-24T21:25:54.295Z,14.53
2022-09-24T21:28:22.602Z,14.52
2022-09-24T21:30:57.968Z,14.50
2022-09-24T21:33:25.618Z,14.48
2022-09-24T21:35:53.630Z,14.46
2022-09-24T21:38:21.273Z,14.43
2022-09-24T21:40:54.663Z,14.44
2022-09-24T21:43:23.621Z,14.41
2022-09-24T21:45:52.454Z,14.40
2022-09-24T21:48:20.969Z,14.40
2022-09-24T21:50:48.812Z,14.40
2022-09-24T21:53:16.525Z,14.39
2022-09-24T21:55:47.413Z,14.39
2022-09-24T21:58:16.807Z,14.40
2022-09-24T22:00:44.456Z,14.41
2022-09-24T22:03:13.170Z,14.41
2022-09-24T22:05:42.936Z,14.43
2022-09-24T22:08:12.969Z,14.44
2022-09-24T22:10:41.548Z,14.44
2022-09-24T22:13:11.089Z,14.45
2022-09-24T22:15:43.616Z,14.45
2022-09-24T22:18:13.077Z,14.46
2022-09-24T22:20:44.581Z,14.47
2022-09-24T22:23:12.592Z,14.47
2022-09-24T22:25:40.291Z,14.49
2022-09-24T22:28:07.923Z,14.48
2022-09-24T22:30:35.642Z,14.49
2022-09-24T22:33:04.736Z,14.50
2022-09-24T22:35:50.586Z,14.50
2022-09-24T22:38:18.797Z,14.51
2022-09-24T22:40:46.379Z,14.52
2022-09-24T22:43:14.152Z,14.52
2022-09-24T22:45:43.446Z,14.53
2022-09-24T22:48:12.542Z,14.53
2022-09-24T22:50:40.319Z,14.52
2022-09-24T22:53:09.021Z,14.51
2022-09-24T22:55:36.755Z,14.49
2022-09-24T22:58:04.518Z,14.48
2022-09-24T23:00:32.154Z,14.46
2022-09-24T23:03:00.362Z,14.45
2022-09-24T23:05:30.045Z,14.45
2022-09-24T23:07:57.776Z,14.46
2022-09-24T23:10:25.536Z,14.47
2022-09-24T23:12:53.239Z,14.46
2022-09-24T23:15:21.375Z,14.45
2022-09-24T23:17:49.060Z,14.45
2022-09-24T23:20:16.956Z,14.44
2022-09-24T23:22:46.029Z,14.43
2022-09-24T23:25:13.674Z,14.40
2022-09-24T23:27:41.285Z,14.28
2022-09-24T23:30:10.207Z,14.36
2022-09-24T23:32:37.838Z,14.35
2022-09-24T23:35:06.135Z,14.29
2022-09-24T23:37:33.824Z,14.31
2022-09-24T23:40:03.486Z,14.28
2022-09-24T23:42:31.585Z,14.25
2022-09-24T23:44:59.224Z,14.24
2022-09-24T23:47:26.872Z,14.25
2022-09-24T23:49:54.546Z,14.25
2022-09-24T23:52:22.273Z,14.24
2022-09-24T23:54:49.930Z,14.22
2022-09-24T23:57:19.042Z,14.22
2022-09-24T23:59:46.665Z,14.20
